Time;durP1;ratioP1;P1;durP2;ratioP2;P2;SDS_P1;SDS_P2;PMS_P1;PMS_P2;Temp;Humidity;BMP_temperature;BMP_pressure;BME280_temperature;BME280_humidity;BME280_pressure;Samples;Min_cycle;Max_cycle;Signal;HPM_P1;HPM_P2
2021/07/13 00:00:55;;;;;;;7.10;6.20;;;;;;;21.24;67.13;98621.11;2292343;78;20893;-82
2021/07/13 00:03:57;;;;;;;6.20;5.62;;;;;;;21.21;67.29;98625.16;2292265;78;20884;-81
2021/07/13 00:06:59;;;;;;;10.13;6.72;;;;;;;21.18;66.38;98619.50;2292013;78;20982;-82
2021/07/13 00:10:00;;;;;;;7.12;6.42;;;;;;;21.05;67.47;98629.25;2292008;78;20940;-84
2021/07/13 00:16:47;;;;;;;9.10;6.75;;;;;;;20.70;67.48;98628.60;2292111;78;20907;-82
2021/07/13 00:19:48;;;;;;;8.45;6.62;;;;;;;20.67;68.47;98624.27;2292173;78;20965;-82
2021/07/13 00:22:49;;;;;;;6.40;5.80;;;;;;;20.79;68.29;98618.16;2291867;78;20884;-83
2021/07/13 00:25:50;;;;;;;11.18;5.65;;;;;;;20.82;68.04;98612.32;2291859;78;20989;-82
2021/07/13 00:28:50;;;;;;;7.65;6.53;;;;;;;20.77;67.53;98617.34;2292110;78;21319;-83
2021/07/13 00:31:51;;;;;;;6.83;5.57;;;;;;;20.77;68.16;98612.90;2292055;78;21008;-82
2021/07/13 00:34:52;;;;;;;6.92;6.28;;;;;;;20.78;67.62;98610.66;2291943;78;20897;-83
2021/07/13 00:37:53;;;;;;;7.80;5.92;;;;;;;20.69;67.66;98612.28;2291899;78;20948;-84
2021/07/13 00:40:54;;;;;;;7.70;6.92;;;;;;;20.55;67.87;98618.03;2291924;78;20956;-82
2021/07/13 00:43:55;;;;;;;9.70;6.65;;;;;;;20.72;68.41;98609.53;2291503;78;20905;-82
2021/07/13 00:46:56;;;;;;;8.65;6.60;;;;;;;20.94;67.78;98611.91;2291978;78;20928;-82
2021/07/13 00:49:57;;;;;;;7.85;7.15;;;;;;;21.05;67.34;98614.66;2292426;78;20964;-83
2021/07/13 00:52:58;;;;;;;9.33;6.80;;;;;;;21.13;66.87;98605.52;2292184;78;20876;-82
2021/07/13 00:55:59;;;;;;;8.90;6.72;;;;;;;21.18;66.53;98605.36;2287555;78;21041;-82
2021/07/13 00:59:00;;;;;;;7.75;6.45;;;;;;;21.19;66.39;98607.09;2282070;78;20905;-82
2021/07/13 01:02:01;;;;;;;8.03;6.05;;;;;;;21.12;66.06;98603.78;2281994;77;21326;-83
2021/07/13 01:05:02;;;;;;;7.10;6.42;;;;;;;21.07;66.16;98599.55;2282104;78;21283;-82
2021/07/13 01:08:03;;;;;;;7.95;5.72;;;;;;;21.07;66.00;98606.19;2281974;77;20930;-82
2021/07/13 01:11:04;;;;;;;6.33;5.75;;;;;;;21.06;66.03;98605.78;2282125;78;21005;-83
2021/07/13 01:14:05;;;;;;;8.80;5.83;;;;;;;20.98;65.73;98606.91;2282556;77;20926;-83
2021/07/13 01:17:06;;;;;;;6.70;5.78;;;;;;;20.68;66.25;98602.59;2282024;78;20933;-83
2021/07/13 01:20:07;;;;;;;6.40;5.33;;;;;;;20.70;66.49;98604.73;2282041;77;20959;-83
2021/07/13 01:23:08;;;;;;;6.28;5.67;;;;;;;20.77;66.35;98598.77;2282044;77;20909;-82
2021/07/13 01:26:09;;;;;;;6.40;5.58;;;;;;;20.83;66.15;98598.14;2282026;77;21358;-84
2021/07/13 01:29:10;;;;;;;6.20;5.60;;;;;;;20.82;66.37;98596.41;2281952;77;20903;-83
2021/07/13 01:32:11;;;;;;;8.13;5.55;;;;;;;20.87;65.99;98589.16;2282503;78;20914;-84
2021/07/13 01:35:12;;;;;;;6.25;5.45;;;;;;;20.88;65.98;98592.22;2282360;78;21282;-82
2021/07/13 01:38:13;;;;;;;6.20;5.60;;;;;;;20.91;65.64;98588.59;2281982;77;21270;-82
2021/07/13 01:41:14;;;;;;;7.60;6.00;;;;;;;20.95;65.27;98591.09;2281781;77;20962;-82
2021/07/13 01:44:15;;;;;;;27.82;6.37;;;;;;;20.88;65.33;98585.59;2282011;77;20975;-83
2021/07/13 01:47:16;;;;;;;8.78;5.95;;;;;;;20.87;64.99;98594.47;2282032;78;20906;-83
2021/07/13 01:50:17;;;;;;;7.33;5.78;;;;;;;20.85;65.18;98585.69;2281971;78;20906;-83
2021/07/13 01:53:18;;;;;;;5.95;5.45;;;;;;;20.83;64.80;98593.30;2281931;77;20941;-83
2021/07/13 01:56:19;;;;;;;9.83;5.53;;;;;;;20.55;65.18;98594.62;2265917;76;21391;-84
2021/07/13 01:59:20;;;;;;;9.18;4.95;;;;;;;20.55;64.68;98599.93;2249698;79;21077;-82
2021/07/13 02:02:21;;;;;;;35.17;5.67;;;;;;;20.41;65.42;98604.80;2249747;79;20957;-83
2021/07/13 02:05:22;;;;;;;5.72;5.10;;;;;;;20.31;64.90;98611.69;2249833;79;21316;-81
2021/07/13 02:08:23;;;;;;;5.35;4.95;;;;;;;20.22;65.96;98613.30;2249733;79;20971;-82
2021/07/13 02:11:25;;;;;;;8.08;5.20;;;;;;;20.27;65.81;98612.70;2249489;79;20980;-83
2021/07/13 02:14:26;;;;;;;72.58;9.65;;;;;;;20.32;65.65;98613.87;2249816;79;21348;-83
2021/07/13 02:17:30;;;;;;;11.80;6.03;;;;;;;20.17;64.67;98617.87;2249348;79;20988;-83
2021/07/13 02:20:29;;;;;;;7.47;5.40;;;;;;;19.97;65.85;98612.30;2249806;79;21364;-82
2021/07/13 02:23:30;;;;;;;6.87;6.28;;;;;;;19.94;66.33;98615.00;2249715;79;20912;-82
2021/07/13 02:26:31;;;;;;;16.23;6.20;;;;;;;20.08;66.56;98615.95;2249580;79;20936;-82
2021/07/13 02:29:32;;;;;;;6.08;5.50;;;;;;;20.20;66.30;98613.80;2249707;79;21265;-82
2021/07/13 02:32:33;;;;;;;6.35;5.75;;;;;;;20.29;65.89;98616.16;2249713;79;20900;-82
2021/07/13 02:35:34;;;;;;;8.18;6.33;;;;;;;20.27;65.85;98608.72;2249675;79;20901;-83
2021/07/13 02:38:35;;;;;;;6.33;5.70;;;;;;;20.30;65.77;98609.95;2249672;79;20905;-83
2021/07/13 02:41:36;;;;;;;6.47;5.50;;;;;;;20.40;65.60;98604.39;2249456;79;20983;-83
2021/07/13 02:44:37;;;;;;;6.42;5.58;;;;;;;20.46;65.17;98599.77;2249593;79;20899;-82
2021/07/13 02:47:38;;;;;;;6.15;5.55;;;;;;;20.51;65.28;98598.30;2249692;79;20955;-82
2021/07/13 02:50:39;;;;;;;14.07;5.92;;;;;;;20.55;64.93;98606.09;2249716;79;20960;-82
2021/07/13 02:53:40;;;;;;;8.35;5.72;;;;;;;20.50;64.83;98613.79;2249772;79;20869;-83
2021/07/13 02:56:41;;;;;;;6.33;5.83;;;;;;;20.54;64.42;98608.80;2266688;77;20958;-83
2021/07/13 02:59:41;;;;;;;6.28;5.67;;;;;;;20.48;64.85;98612.97;2282206;78;21357;-83
2021/07/13 03:02:42;;;;;;;15.20;6.25;;;;;;;20.51;64.85;98599.16;2282196;78;20921;-81
2021/07/13 03:05:43;;;;;;;7.10;6.40;;;;;;;20.55;64.67;98597.28;2281982;78;20911;-83
2021/07/13 03:08:44;;;;;;;6.55;5.92;;;;;;;20.44;64.75;98598.08;2281882;77;20959;-84
2021/07/13 03:11:45;;;;;;;8.63;5.67;;;;;;;20.31;64.87;98591.80;2281523;78;20973;-83
2021/07/13 03:14:46;;;;;;;13.70;6.67;;;;;;;20.41;65.23;98591.55;2281884;77;21283;-82
2021/07/13 03:17:47;;;;;;;10.95;7.25;;;;;;;20.55;65.10;98594.62;2282014;77;20903;-82
2021/07/13 03:20:48;;;;;;;6.97;6.37;;;;;;;20.61;64.88;98594.42;2282243;78;21306;-81
2021/07/13 03:23:49;;;;;;;11.25;5.90;;;;;;;20.72;64.70;98584.80;2282297;78;21247;-82
2021/07/13 03:26:50;;;;;;;8.18;5.45;;;;;;;20.78;64.55;98583.27;2282377;78;20978;-82
2021/07/13 03:29:51;;;;;;;9.80;6.20;;;;;;;20.80;64.54;98580.09;2282773;78;20965;-79
2021/07/13 03:32:52;;;;;;;35.63;27.42;;;;;;;20.80;64.53;98586.27;2282606;77;20907;-80
2021/07/13 03:35:53;;;;;;;27.20;7.35;;;;;;;20.90;64.44;98585.08;2282606;78;20891;-82
2021/07/13 03:38:58;;;;;;;6.37;5.78;;;;;;;20.82;64.41;98588.91;2282354;77;20934;-82
2021/07/13 03:41:59;;;;;;;10.60;5.83;;;;;;;20.94;64.42;98583.19;2282052;77;20961;-80
2021/07/13 03:45:00;;;;;;;9.30;6.08;;;;;;;21.01;64.01;98581.19;2281889;77;20926;-80
2021/07/13 03:48:01;;;;;;;11.85;6.22;;;;;;;20.56;63.61;98585.75;2281662;78;20982;-81
2021/07/13 03:51:02;;;;;;;6.53;5.92;;;;;;;20.58;64.93;98579.94;2282199;78;21359;-80
2021/07/13 03:54:03;;;;;;;18.70;6.05;;;;;;;20.67;64.68;98580.97;2282467;77;20914;-80
2021/07/13 03:57:04;;;;;;;46.15;7.08;;;;;;;20.46;64.29;98579.88;2263410;77;20979;-80
2021/07/13 04:00:05;;;;;;;8.98;5.97;;;;;;;20.24;65.04;98573.03;2250078;79;20984;-81
2021/07/13 04:03:06;;;;;;;7.92;5.35;;;;;;;20.19;65.68;98569.66;2250060;79;20972;-81
2021/07/13 04:06:06;;;;;;;6.67;6.00;;;;;;;20.46;66.15;98566.63;2249310;79;20996;-81
2021/07/13 04:09:07;;;;;;;76.65;11.05;;;;;;;20.88;65.72;98567.02;2249960;79;20969;-80
2021/07/13 04:12:08;;;;;;;197.28;20.97;;;;;;;21.14;65.32;98559.94;2249780;79;21019;-77
2021/07/13 04:15:09;;;;;;;328.62;30.08;;;;;;;21.29;64.73;98554.12;2249044;79;21016;-81
2021/07/13 04:18:10;;;;;;;123.15;14.95;;;;;;;21.43;64.70;98556.27;2249887;79;20968;-81
2021/07/13 04:21:11;;;;;;;176.45;19.73;;;;;;;21.65;64.16;98543.94;2250229;79;20924;-81
2021/07/13 04:24:12;;;;;;;95.50;13.43;;;;;;;21.81;63.66;98549.56;2248971;79;20928;-82
2021/07/13 04:27:13;;;;;;;90.83;13.20;;;;;;;22.03;63.29;98542.99;2248656;79;20958;-81
2021/07/13 04:30:14;;;;;;;10.98;5.78;;;;;;;22.24;62.81;98543.47;2248393;79;20927;-80
2021/07/13 04:33:15;;;;;;;39.78;8.35;;;;;;;22.44;62.49;98538.67;2249104;79;20928;-81
2021/07/13 04:36:16;;;;;;;28.62;8.08;;;;;;;22.55;62.23;98537.34;2248718;79;20983;-81
2021/07/13 04:39:17;;;;;;;26.17;7.45;;;;;;;22.75;61.85;98531.66;2249054;79;20927;-80
2021/07/13 04:42:18;;;;;;;15.43;6.53;;;;;;;22.94;61.21;98528.64;2248967;79;20983;-81
2021/07/13 04:45:19;;;;;;;10.43;6.97;;;;;;;23.10;61.07;98530.17;2248679;79;20913;-81
2021/07/13 04:48:20;;;;;;;17.62;6.40;;;;;;;23.22;60.71;98535.42;2248228;79;20944;-81
2021/07/13 04:51:21;;;;;;;10.08;6.40;;;;;;;23.16;60.46;98540.55;2249498;79;20893;-83
2021/07/13 04:54:22;;;;;;;9.78;6.40;;;;;;;22.95;61.11;98549.46;2248950;79;20928;-80
2021/07/13 04:57:23;;;;;;;12.15;7.12;;;;;;;22.86;61.21;98547.59;2274037;77;20964;-82
2021/07/13 05:00:24;;;;;;;13.83;7.17;;;;;;;22.39;62.24;98552.63;2291875;78;20927;-82
2021/07/13 05:03:25;;;;;;;9.25;6.92;;;;;;;21.78;63.04;98556.33;2292199;78;20946;-81
2021/07/13 05:06:27;;;;;;;9.15;6.80;;;;;;;21.85;63.59;98558.69;2291328;78;20983;-81
2021/07/13 05:09:28;;;;;;;12.33;7.40;;;;;;;21.60;65.43;98554.73;2291313;78;20928;-79
2021/07/13 05:12:29;;;;;;;7.15;6.45;;;;;;;22.26;65.20;98557.57;2291449;78;20983;-79
2021/07/13 05:15:33;;;;;;;32.48;9.28;;;;;;;22.77;64.60;98560.39;2290837;78;21000;-79
2021/07/13 05:18:35;;;;;;;8.83;7.05;;;;;;;23.07;63.85;98559.58;2291570;78;21352;-79
2021/07/13 05:21:38;;;;;;;9.78;7.67;;;;;;;23.22;63.55;98553.59;2292031;78;20940;-79
2021/07/13 05:24:38;;;;;;;9.83;7.10;;;;;;;23.36;63.15;98555.18;2292082;78;20917;-80
2021/07/13 05:27:39;;;;;;;7.47;6.75;;;;;;;23.46;63.03;98559.20;2290673;78;20951;-78
2021/07/13 05:30:40;;;;;;;14.23;7.30;;;;;;;23.47;62.36;98557.39;2290374;78;21307;-78
2021/07/13 05:33:41;;;;;;;8.13;7.33;;;;;;;23.54;62.96;98553.98;2290677;78;20916;-80
2021/07/13 05:36:42;;;;;;;24.65;8.15;;;;;;;23.68;62.03;98546.27;2290568;78;21285;-77
2021/07/13 05:39:43;;;;;;;10.88;7.40;;;;;;;23.81;62.45;98544.77;2291027;78;20979;-79
2021/07/13 05:42:44;;;;;;;8.00;7.22;;;;;;;23.93;61.55;98540.20;2290613;78;20952;-79
2021/07/13 05:45:45;;;;;;;46.92;42.10;;;;;;;23.82;61.76;98539.83;2291519;78;20949;-79
2021/07/13 05:48:46;;;;;;;14.33;9.80;;;;;;;23.78;61.77;98550.23;2292396;78;20944;-80
2021/07/13 05:51:48;;;;;;;8.75;7.25;;;;;;;23.94;61.60;98540.59;2290667;78;21011;-78
2021/07/13 05:54:48;;;;;;;8.03;7.22;;;;;;;24.33;60.97;98535.69;2291246;78;21319;-79
2021/07/13 05:57:50;;;;;;;10.45;7.53;;;;;;;24.44;60.61;98533.36;2284691;78;21001;-80
2021/07/13 06:00:53;;;;;;;43.63;9.23;;;;;;;24.39;60.23;98528.72;2281379;77;20918;-78
2021/07/13 06:03:54;;;;;;;10.30;7.15;;;;;;;24.49;60.11;98527.33;2282216;77;20966;-79
2021/07/13 06:06:55;;;;;;;7.42;6.72;;;;;;;24.11;60.16;98531.80;2280840;78;20930;-81
2021/07/13 06:09:56;;;;;;;8.70;6.85;;;;;;;24.24;61.15;98527.59;2280417;77;21275;-82
2021/07/13 06:12:57;;;;;;;7.28;6.67;;;;;;;24.56;60.57;98531.89;2281120;78;21318;-81
2021/07/13 06:15:58;;;;;;;8.33;6.30;;;;;;;24.65;59.69;98538.97;2281214;77;20977;-80
2021/07/13 06:18:59;;;;;;;11.63;7.08;;;;;;;24.35;59.69;98536.48;2281605;78;21131;-80
2021/07/13 06:22:00;;;;;;;7.97;7.05;;;;;;;24.32;60.02;98539.30;2280697;78;20918;-78
2021/07/13 06:25:01;;;;;;;9.90;9.00;;;;;;;24.55;59.67;98544.83;2280995;78;20890;-80
2021/07/13 06:28:02;;;;;;;11.68;10.58;;;;;;;24.55;59.18;98545.70;2281336;77;20977;-79
2021/07/13 06:31:03;;;;;;;12.43;7.15;;;;;;;23.97;59.40;98548.91;2281515;78;20942;-80
2021/07/13 06:34:04;;;;;;;7.92;7.15;;;;;;;23.82;60.43;98553.16;2281181;78;20927;-79
2021/07/13 06:37:05;;;;;;;8.00;7.30;;;;;;;23.80;60.36;98557.23;2281350;78;20911;-79
2021/07/13 06:40:06;;;;;;;7.62;6.92;;;;;;;23.98;60.20;98555.97;2281485;77;21318;-79
2021/07/13 06:43:07;;;;;;;11.80;8.30;;;;;;;24.14;59.88;98559.17;2281048;77;21001;-80
2021/07/13 06:46:08;;;;;;;8.65;7.85;;;;;;;24.00;59.99;98549.63;2281412;77;20917;-79
2021/07/13 06:49:09;;;;;;;8.68;7.80;;;;;;;24.11;60.13;98549.98;2281402;77;21341;-79
2021/07/13 06:52:10;;;;;;;8.00;7.40;;;;;;;24.43;59.90;98543.64;2281300;78;21408;-80
2021/07/13 06:55:11;;;;;;;9.33;8.50;;;;;;;24.87;58.99;98535.21;2281592;77;20944;-79
2021/07/13 06:58:12;;;;;;;9.90;7.60;;;;;;;25.00;58.72;98535.01;2257543;78;21324;-79
2021/07/13 07:01:13;;;;;;;9.63;8.38;;;;;;;25.28;58.27;98538.48;2249063;79;20913;-79
2021/07/13 07:04:14;;;;;;;8.68;7.92;;;;;;;25.42;57.51;98539.08;2249311;79;20959;-80
2021/07/13 07:07:15;;;;;;;22.60;9.78;;;;;;;25.49;56.94;98540.01;2249372;79;20960;-79
2021/07/13 07:10:17;;;;;;;92.27;79.82;;;;;;;25.35;57.83;98535.40;2249053;79;20912;-78
2021/07/13 07:13:17;;;;;;;21.65;10.30;;;;;;;25.55;57.63;98530.80;2248412;79;20968;-78
2021/07/13 07:16:19;;;;;;;13.83;9.48;;;;;;;25.83;57.14;98531.06;2248482;79;20908;-79
2021/07/13 07:19:19;;;;;;;16.25;9.95;;;;;;;25.98;57.03;98536.89;2248501;79;21237;-79
2021/07/13 07:22:20;;;;;;;10.40;9.35;;;;;;;26.14;56.58;98532.06;2248105;79;20917;-80
2021/07/13 07:25:21;;;;;;;11.20;8.68;;;;;;;26.22;56.32;98525.80;2248320;79;20952;-79
2021/07/13 07:28:22;;;;;;;11.03;8.40;;;;;;;26.43;55.96;98532.64;2248546;79;20992;-80
2021/07/13 07:31:23;;;;;;;9.55;8.60;;;;;;;26.31;56.04;98523.94;2248205;79;20969;-78
2021/07/13 07:34:24;;;;;;;32.08;10.23;;;;;;;26.10;56.28;98524.69;2248481;79;20917;-78
2021/07/13 07:37:25;;;;;;;12.45;8.35;;;;;;;26.30;56.49;98520.88;2248748;79;20937;-80
2021/07/13 07:40:27;;;;;;;14.15;9.08;;;;;;;26.44;56.25;98523.66;2248753;79;20968;-80
2021/07/13 07:43:28;;;;;;;17.92;9.33;;;;;;;26.35;56.29;98520.17;2248524;79;21038;-81
2021/07/13 07:46:29;;;;;;;9.43;8.45;;;;;;;26.56;56.35;98513.58;2249107;79;21035;-81
2021/07/13 07:49:31;;;;;;;10.13;9.20;;;;;;;26.44;56.54;98511.62;2248709;79;20968;-80
2021/07/13 07:52:32;;;;;;;13.25;11.95;;;;;;;26.35;57.08;98510.81;2249303;79;21031;-80
2021/07/13 07:55:33;;;;;;;16.15;8.88;;;;;;;26.37;56.66;98505.37;2249114;79;20911;-81
2021/07/13 07:58:34;;;;;;;8.43;7.75;;;;;;;26.48;56.63;98505.61;2249554;77;20920;-81
2021/07/13 08:01:35;;;;;;;10.15;8.38;;;;;;;26.57;56.61;98499.25;2249772;79;20955;-81
2021/07/13 08:04:39;;;;;;;9.48;8.28;;;;;;;26.77;56.06;98495.88;2249688;79;20972;-81
2021/07/13 08:07:40;;;;;;;9.00;8.20;;;;;;;26.77;56.02;98494.05;2249889;79;20971;-80
2021/07/13 08:10:41;;;;;;;12.35;8.68;;;;;;;27.07;55.35;98502.13;2250241;79;20919;-80
2021/07/13 08:13:42;;;;;;;15.23;8.35;;;;;;;27.27;54.65;98496.41;2249949;79;21270;-80
2021/07/13 08:16:45;;;;;;;10.23;8.18;;;;;;;27.43;54.24;98495.47;2250154;79;20940;-80
2021/07/13 08:19:45;;;;;;;10.68;8.03;;;;;;;27.43;54.04;98495.47;2250338;79;20935;-80
2021/07/13 08:22:47;;;;;;;9.18;8.48;;;;;;;27.31;54.17;98498.91;2249621;79;21304;-82
2021/07/13 08:25:48;;;;;;;10.05;8.05;;;;;;;27.33;53.92;98502.35;2249499;79;20932;-82
2021/07/13 08:28:49;;;;;;;8.80;7.87;;;;;;;27.44;54.13;98499.39;2249223;79;21019;-80
2021/07/13 08:31:55;;;;;;;10.43;7.97;;;;;;;27.53;53.91;98505.52;2249227;79;20884;-81
2021/07/13 08:34:52;;;;;;;10.63;7.58;;;;;;;27.83;53.70;98496.56;2249516;76;20900;-80
2021/07/13 08:37:53;;;;;;;8.58;7.78;;;;;;;28.05;52.77;98496.05;2249558;79;20921;-81
2021/07/13 08:40:54;;;;;;;8.30;7.47;;;;;;;28.09;53.20;98492.20;2249453;79;20956;-81
2021/07/13 08:43:55;;;;;;;58.75;10.82;;;;;;;28.22;52.78;98491.78;2250586;79;20932;-81
2021/07/13 08:46:57;;;;;;;15.98;8.30;;;;;;;28.10;52.79;98486.73;2250449;79;21015;-81
2021/07/13 08:49:59;;;;;;;15.32;10.40;;;;;;;28.26;53.10;98492.48;2250328;79;20932;-80
2021/07/13 08:53:00;;;;;;;35.30;24.85;;;;;;;28.47;52.76;98490.58;2249499;79;21062;-80
2021/07/13 08:56:03;;;;;;;14.50;8.75;;;;;;;28.80;51.93;98490.16;2250580;79;20932;-81
2021/07/13 08:59:04;;;;;;;8.33;7.53;;;;;;;28.94;51.53;98489.25;2276987;77;21018;-80
2021/07/13 09:02:05;;;;;;;11.00;9.00;;;;;;;28.75;51.67;98490.09;2281254;78;20926;-80
2021/07/13 09:05:08;;;;;;;9.08;7.92;;;;;;;28.76;51.86;98486.45;2281955;77;20930;-81
2021/07/13 09:08:08;;;;;;;7.85;7.22;;;;;;;28.74;51.25;98483.00;2282144;77;21033;-81
2021/07/13 09:11:17;;;;;;;10.63;8.13;;;;;;;28.90;51.38;98482.85;2281955;77;21369;-80
2021/07/13 09:14:18;;;;;;;8.78;7.87;;;;;;;28.95;51.36;98478.03;2282035;78;20930;-81
2021/07/13 09:17:19;;;;;;;9.03;8.13;;;;;;;29.05;51.01;98479.11;2282422;77;20898;-80
2021/07/13 09:20:27;;;;;;;9.60;8.75;;;;;;;29.10;51.16;98481.86;2281860;78;20918;-80
2021/07/13 09:23:25;;;;;;;10.10;8.45;;;;;;;28.94;51.06;98476.30;2281415;77;20978;-81
2021/07/13 09:26:26;;;;;;;9.28;8.40;;;;;;;28.77;51.35;98481.45;2282259;78;20957;-80
2021/07/13 09:29:28;;;;;;;9.15;8.30;;;;;;;28.76;51.71;98486.45;2282232;77;21301;-81
2021/07/13 09:32:29;;;;;;;17.55;8.70;;;;;;;28.92;51.41;98481.78;2282764;77;20902;-80
2021/07/13 09:35:30;;;;;;;10.00;8.15;;;;;;;28.91;51.75;98482.75;2283374;77;20908;-82
2021/07/13 09:38:31;;;;;;;19.35;10.23;;;;;;;28.85;51.57;98478.66;2282769;78;20926;-81
2021/07/13 09:41:32;;;;;;;11.12;9.30;;;;;;;28.98;51.53;98474.64;2283202;78;21404;-81
2021/07/13 09:44:35;;;;;;;75.37;13.48;;;;;;;29.08;51.15;98481.10;2283050;78;21394;-79
2021/07/13 09:47:36;;;;;;;10.65;8.85;;;;;;;29.16;50.92;98479.23;2283134;78;20981;-81
2021/07/13 09:50:39;;;;;;;12.95;9.10;;;;;;;29.23;50.19;98480.52;2283024;78;20938;-81
2021/07/13 09:53:39;;;;;;;25.23;10.75;;;;;;;29.45;49.20;98474.04;2282304;78;20988;-80
2021/07/13 09:56:40;;;;;;;17.07;9.23;;;;;;;29.60;49.95;98471.27;2282112;78;20953;-81
2021/07/13 09:59:41;;;;;;;17.20;9.38;;;;;;;29.64;49.35;98470.93;2251143;77;20967;-80
2021/07/13 10:02:42;;;;;;;9.00;8.05;;;;;;;29.58;49.27;98464.64;2250774;79;20919;-81
2021/07/13 10:05:43;;;;;;;170.35;20.77;;;;;;;29.46;49.10;98468.17;2250278;79;20913;-81
2021/07/13 10:08:44;;;;;;;20.50;9.80;;;;;;;29.44;49.60;98466.08;2248854;79;20983;-76
2021/07/13 10:11:45;;;;;;;10.03;8.70;;;;;;;29.58;49.41;98465.99;2249280;79;20972;-80
2021/07/13 10:14:46;;;;;;;23.73;19.30;;;;;;;29.67;49.03;98470.70;2250694;79;20976;-80
2021/07/13 10:17:47;;;;;;;11.33;9.10;;;;;;;29.66;48.56;98460.92;2251041;79;20924;-80
2021/07/13 10:20:48;;;;;;;11.83;8.88;;;;;;;29.66;48.51;98460.92;2251368;79;20924;-82
2021/07/13 10:23:49;;;;;;;8.93;8.03;;;;;;;29.77;48.08;98457.45;2250521;79;21359;-80
2021/07/13 10:26:50;;;;;;;14.50;8.48;;;;;;;29.88;47.94;98460.22;2251048;79;20952;-82
2021/07/13 10:29:57;;;;;;;9.95;8.95;;;;;;;30.02;47.40;98461.45;2251054;79;20999;-81
2021/07/13 10:32:58;;;;;;;12.43;8.40;;;;;;;30.08;46.76;98449.38;2249987;79;20944;-81
2021/07/13 10:35:59;;;;;;;9.38;7.87;;;;;;;29.98;46.34;98453.69;2250877;79;20892;-81
2021/07/13 10:39:00;;;;;;;10.55;8.70;;;;;;;30.05;46.77;98447.77;2249904;79;20952;-80
2021/07/13 10:42:02;;;;;;;12.23;8.90;;;;;;;30.16;45.72;98442.94;2249860;79;21384;-80
2021/07/13 10:45:03;;;;;;;8.50;7.65;;;;;;;30.14;46.11;98446.23;2250061;79;20912;-77
2021/07/13 10:48:04;;;;;;;8.03;7.30;;;;;;;30.11;45.84;98442.42;2248726;79;21366;-77
2021/07/13 10:51:07;;;;;;;7.20;6.45;;;;;;;30.28;44.97;98444.72;2249550;79;21264;-79
2021/07/13 10:54:10;;;;;;;8.00;7.10;;;;;;;30.50;44.74;98445.34;2250193;79;20999;-79
2021/07/13 10:57:11;;;;;;;8.05;7.25;;;;;;;30.90;43.20;98455.30;2250390;77;20948;-79
2021/07/13 11:00:12;;;;;;;7.95;7.20;;;;;;;31.01;42.71;98444.54;2249837;79;20884;-79
2021/07/13 11:03:16;;;;;;;8.15;7.35;;;;;;;31.33;42.91;98443.91;2250028;79;20912;-80
2021/07/13 11:06:17;;;;;;;10.30;7.20;;;;;;;31.40;41.85;98441.59;2249345;79;20957;-79
2021/07/13 11:09:18;;;;;;;9.58;8.88;;;;;;;31.45;41.40;98436.20;2250057;79;20912;-80
2021/07/13 11:12:19;;;;;;;9.65;7.35;;;;;;;31.52;41.55;98437.91;2249933;79;21016;-79
2021/07/13 11:15:20;;;;;;;11.93;6.40;;;;;;;31.39;42.05;98433.98;2250181;79;20917;-81
2021/07/13 11:18:23;;;;;;;6.47;5.90;;;;;;;31.76;41.44;98431.06;2249895;79;21019;-80
2021/07/13 11:21:26;;;;;;;7.95;7.12;;;;;;;32.34;40.57;98415.02;2249673;79;21674;-80
2021/07/13 11:24:27;;;;;;;7.05;6.45;;;;;;;32.34;40.57;98415.02;2249906;79;21391;-80
2021/07/13 11:27:28;;;;;;;10.13;6.83;;;;;;;32.37;40.20;98420.66;2250234;79;20928;-80
2021/07/13 11:30:29;;;;;;;8.18;7.37;;;;;;;32.36;40.78;98418.45;2250074;79;20991;-79
2021/07/13 11:33:30;;;;;;;8.10;6.97;;;;;;;32.02;41.49;98420.83;2249583;79;20932;-78
2021/07/13 11:36:31;;;;;;;8.90;6.83;;;;;;;31.95;41.84;98421.82;2250232;79;21359;-80
2021/07/13 11:39:33;;;;;;;8.70;7.45;;;;;;;31.67;41.77;98420.48;2250221;79;20940;-78
2021/07/13 11:42:34;;;;;;;8.10;7.30;;;;;;;31.63;42.14;98423.92;2250844;79;20995;-78
2021/07/13 11:45:36;;;;;;;9.98;6.60;;;;;;;31.87;41.84;98418.41;2250437;79;20977;-78
2021/07/13 11:48:37;;;;;;;7.62;6.70;;;;;;;32.21;40.27;98413.80;2249745;79;20991;-79
2021/07/13 11:51:38;;;;;;;11.00;6.47;;;;;;;32.15;39.96;98406.70;2249716;79;20916;-80
2021/07/13 11:54:39;;;;;;;11.18;6.90;;;;;;;32.16;39.55;98405.23;2249588;79;20979;-79
2021/07/13 11:57:40;;;;;;;8.53;6.08;;;;;;;32.30;38.77;98407.67;2254276;77;21062;-79
2021/07/13 12:00:42;;;;;;;6.92;6.30;;;;;;;32.33;38.59;98399.80;2291955;78;20992;-79
2021/07/13 12:03:43;;;;;;;9.13;6.53;;;;;;;32.22;38.76;98397.11;2291690;78;21305;-80
2021/07/13 12:06:44;;;;;;;9.70;5.95;;;;;;;32.09;39.83;98401.33;2292638;78;20975;-80
2021/07/13 12:09:45;;;;;;;6.42;5.90;;;;;;;32.53;39.42;98402.16;2292479;78;20913;-81
2021/07/13 12:12:46;;;;;;;6.90;6.20;;;;;;;32.62;38.86;98395.98;2291733;78;20955;-79
2021/07/13 12:15:47;;;;;;;8.43;6.62;;;;;;;32.46;39.05;98399.13;2292535;78;20935;-80
2021/07/13 12:18:48;;;;;;;17.27;13.95;;;;;;;32.39;39.04;98401.98;2292710;78;20896;-80
2021/07/13 12:21:48;;;;;;;7.97;7.22;;;;;;;32.37;38.81;98400.40;2291704;78;20921;-79
2021/07/13 12:24:50;;;;;;;8.28;7.50;;;;;;;32.11;39.10;98399.84;2291296;78;21011;-80
2021/07/13 12:27:51;;;;;;;8.05;7.25;;;;;;;31.94;39.87;98393.98;2292359;78;21376;-79
2021/07/13 12:30:52;;;;;;;15.70;7.75;;;;;;;31.71;40.54;98392.30;2292480;78;20952;-80
2021/07/13 12:33:53;;;;;;;6.80;6.20;;;;;;;31.59;40.72;98390.58;2292353;78;20907;-79
2021/07/13 12:36:54;;;;;;;10.63;7.65;;;;;;;31.80;40.54;98392.05;2292593;78;20999;-79
2021/07/13 12:39:55;;;;;;;14.13;7.60;;;;;;;31.68;40.71;98387.98;2292467;78;20917;-80
2021/07/13 12:42:56;;;;;;;10.50;7.33;;;;;;;31.59;40.79;98391.44;2292014;78;20972;-78
2021/07/13 12:45:57;;;;;;;24.72;7.85;;;;;;;31.42;41.02;98386.55;2292681;78;20939;-79
2021/07/13 12:48:58;;;;;;;11.45;7.65;;;;;;;31.36;40.99;98373.06;2291794;78;21320;-78
2021/07/13 12:51:59;;;;;;;12.58;7.85;;;;;;;31.43;41.74;98375.27;2291879;78;20939;-80
2021/07/13 12:55:00;;;;;;;9.48;7.20;;;;;;;31.27;42.23;98385.08;2292767;78;20881;-80
2021/07/13 12:58:01;;;;;;;10.43;7.60;;;;;;;31.02;42.62;98388.80;2285046;77;20945;-80
2021/07/13 13:01:02;;;;;;;7.45;6.75;;;;;;;31.16;42.77;98381.00;2250592;79;20972;-79
2021/07/13 13:04:03;;;;;;;8.00;7.25;;;;;;;31.36;42.40;98374.91;2250407;79;20960;-79
2021/07/13 13:07:03;;;;;;;10.10;7.00;;;;;;;31.23;42.30;98382.26;2249426;79;20924;-79
2021/07/13 13:10:04;;;;;;;13.28;7.35;;;;;;;31.02;42.64;98375.33;2249213;79;20896;-79
2021/07/13 13:13:07;;;;;;;7.08;6.37;;;;;;;31.16;42.06;98381.00;2227369;79;20916;-79
2021/07/13 13:16:08;;;;;;;8.48;7.15;;;;;;;31.43;41.85;98372.57;2249727;79;21292;-80
2021/07/13 13:19:09;;;;;;;8.48;6.90;;;;;;;31.55;41.48;98362.99;2249525;79;20995;-82
2021/07/13 13:22:10;;;;;;;10.70;7.75;;;;;;;31.46;41.78;98361.05;2250338;79;21312;-79
2021/07/13 13:25:11;;;;;;;8.78;7.10;;;;;;;31.39;41.86;98361.17;2250444;79;20944;-79
2021/07/13 13:28:12;;;;;;;8.25;7.42;;;;;;;31.38;41.76;98351.38;2250325;79;21390;-79
2021/07/13 13:31:13;;;;;;;8.75;7.20;;;;;;;31.48;42.33;98353.69;2250543;79;20935;-80
2021/07/13 13:34:17;;;;;;;8.78;7.92;;;;;;;31.67;41.26;98349.84;2250080;79;21012;-78
2021/07/13 13:37:22;;;;;;;25.23;8.55;;;;;;;32.02;41.10;98351.99;2249993;79;20893;-80
2021/07/13 13:40:22;;;;;;;8.33;7.60;;;;;;;32.08;40.10;98342.92;2250359;79;20916;-80
2021/07/13 13:43:23;;;;;;;13.98;7.50;;;;;;;31.82;39.98;98341.02;2250331;79;21367;-81
2021/07/13 13:46:24;;;;;;;8.58;7.78;;;;;;;31.74;39.95;98339.94;2250481;79;21327;-80
2021/07/13 13:49:25;;;;;;;8.20;7.50;;;;;;;31.59;40.05;98340.17;2250836;79;20881;-79
2021/07/13 13:52:26;;;;;;;8.08;7.40;;;;;;;31.38;40.10;98341.93;2250781;79;20873;-81
2021/07/13 13:55:27;;;;;;;8.83;7.50;;;;;;;31.58;40.43;98341.16;2250080;79;20999;-79
2021/07/13 13:58:28;;;;;;;10.50;7.83;;;;;;;31.89;39.88;98338.66;2254041;77;21390;-79
2021/07/13 14:01:30;;;;;;;7.92;6.60;;;;;;;32.06;39.82;98331.36;2292053;78;20919;-79
2021/07/13 14:04:30;;;;;;;11.12;6.90;;;;;;;32.08;39.29;98333.93;2291742;78;21004;-79
2021/07/13 14:07:31;;;;;;;8.05;6.47;;;;;;;31.86;39.88;98330.33;2291409;78;21280;-81
2021/07/13 14:10:32;;;;;;;8.48;7.60;;;;;;;31.83;40.96;98331.08;2291807;78;21305;-82